Aérodrome :
LOGIN :

S'inscrire | Disclaimer

   EN    FR    IT 

 










Légende :    VFR   VFR Marginal   IFR   IFR Intensif   IFR Très Intensif
Visi : 
Plafond : 
>= 8 km
>= 3000ft
5 à 8 km
1000 à 3000 ft
1500m à 5 km
500 à 1000 ft
800 à 1500m
200 à 500 ft
< 800m
< 200 ft
Symboles :   Orages  Brouillard  Fortes neiges  Fortes précipitations  Vent > 20 kt
SIGMETs :   Divers  Orages  Givrage  Turbulence  Onde Orograph.  Cendres Volcan.







- Altitude de l'aérodrome : 364 ft
- Code IATA : FRA


EDDF - Frankfurt Int.

DERNIER METAR :
  • 221950Z 28003KT 220V340 9999 MIFG NSC 12/11 Q1022 NOSIG

METARs EXPIRÉS :
  • 221920Z 30003KT 250V350 9999 MIFG NSC 12/12 Q1022 NOSIG
  • 221850Z 30004KT 240V340 9999 MIFG NSC 13/12 Q1021 NOSIG
  • 221820Z VRB02KT CAVOK 14/12 Q1021 NOSIG
  • 221750Z 22002KT CAVOK 15/12 Q1021 NOSIG
  • 221720Z VRB02KT CAVOK 16/13 Q1021 NOSIG

TAF TAF EDDF
Valide du 22 à 18h jusqu'au 24 à 00h UTC


221700Z 2218/2324 VRB03KT CAVOK
BECMG 2308/2310 02005KT
PROB30
TEMPO 2314/2318 SHRA SCT030TCU
Pas de NOTAMs connus pour ce terrain.



MET'MAP, la Météo Aéronautique d'un coup d'oeil ! - Copyright ORBIFLY Décembre 2007 - Disclaimer

ORBIFLY MET'MAP TEAM :

Programmation & Développement : Alexandra Zaïnal
Conception & Développement : Baudouin d'Aumeries
Co-Programmation & Développement : Marc-Olivier Méhu
Soutien technique & logistique : Manuel Goepfert

Contact : metmap@orbifly.com




SOURCES & CREDITS :

   NOAA